sensor_id;sensor_type;location;lat;lon;timestamp;pressure;altitude;pressure_sealevel;temperature;humidity
5550;BME280;2798;42.716;23.256;2024-02-14T00:02:16;94431.88;;;7.63;76.28
5550;BME280;2798;42.716;23.256;2024-02-14T00:04:41;94426.13;;;7.72;75.24
5550;BME280;2798;42.716;23.256;2024-02-14T00:07:06;94432.19;;;7.71;75.50
5550;BME280;2798;42.716;23.256;2024-02-14T00:09:31;94434.34;;;7.64;76.47
5550;BME280;2798;42.716;23.256;2024-02-14T00:11:57;94433.63;;;7.62;76.07
5550;BME280;2798;42.716;23.256;2024-02-14T00:14:22;94433.63;;;7.62;76.44
5550;BME280;2798;42.716;23.256;2024-02-14T00:16:47;94450.84;;;7.60;75.78
5550;BME280;2798;42.716;23.256;2024-02-14T00:19:12;94436.41;;;7.59;76.08
5550;BME280;2798;42.716;23.256;2024-02-14T00:21:38;94451.25;;;7.54;77.07
5550;BME280;2798;42.716;23.256;2024-02-14T00:24:04;94434.00;;;7.56;77.21
5550;BME280;2798;42.716;23.256;2024-02-14T00:26:30;94448.16;;;7.49;77.11
5550;BME280;2798;42.716;23.256;2024-02-14T00:28:55;94447.84;;;7.53;76.80
5550;BME280;2798;42.716;23.256;2024-02-14T00:31:20;94442.81;;;7.52;77.30
5550;BME280;2798;42.716;23.256;2024-02-14T00:33:46;94449.69;;;7.51;77.48
5550;BME280;2798;42.716;23.256;2024-02-14T00:36:11;94452.44;;;7.48;77.57
5550;BME280;2798;42.716;23.256;2024-02-14T00:38:36;94437.19;;;7.47;76.25
5550;BME280;2798;42.716;23.256;2024-02-14T00:41:02;94455.81;;;7.49;76.45
5550;BME280;2798;42.716;23.256;2024-02-14T00:43:27;94470.25;;;7.50;76.35
5550;BME280;2798;42.716;23.256;2024-02-14T00:45:53;94454.69;;;7.53;76.84
5550;BME280;2798;42.716;23.256;2024-02-14T00:48:18;94450.50;;;7.52;76.13
5550;BME280;2798;42.716;23.256;2024-02-14T00:50:43;94448.03;;;7.50;76.22
5550;BME280;2798;42.716;23.256;2024-02-14T00:53:08;94445.47;;;7.50;77.25
5550;BME280;2798;42.716;23.256;2024-02-14T00:55:34;94456.66;;;7.49;76.88
5550;BME280;2798;42.716;23.256;2024-02-14T00:57:59;94452.13;;;7.53;77.31
5550;BME280;2798;42.716;23.256;2024-02-14T01:00:24;94459.41;;;7.46;76.33
5550;BME280;2798;42.716;23.256;2024-02-14T01:02:50;94455.53;;;7.53;76.18
5550;BME280;2798;42.716;23.256;2024-02-14T01:05:16;94453.81;;;7.54;76.53
5550;BME280;2798;42.716;23.256;2024-02-14T01:07:42;94450.50;;;7.52;76.10
5550;BME280;2798;42.716;23.256;2024-02-14T01:10:07;94456.47;;;7.52;76.99
5550;BME280;2798;42.716;23.256;2024-02-14T01:12:32;94461.78;;;7.49;76.45
5550;BME280;2798;42.716;23.256;2024-02-14T01:14:58;94452.34;;;7.50;76.47
5550;BME280;2798;42.716;23.256;2024-02-14T01:17:23;94455.72;;;7.50;76.41
5550;BME280;2798;42.716;23.256;2024-02-14T01:19:50;94454.19;;;7.48;76.72
5550;BME280;2798;42.716;23.256;2024-02-14T01:22:15;94454.59;;;7.54;76.37
5550;BME280;2798;42.716;23.256;2024-02-14T01:24:42;94451.56;;;7.62;75.55
5550;BME280;2798;42.716;23.256;2024-02-14T01:27:07;94443.16;;;7.60;75.68
5550;BME280;2798;42.716;23.256;2024-02-14T01:29:33;94458.28;;;7.50;76.20
5550;BME280;2798;42.716;23.256;2024-02-14T01:31:59;94460.03;;;7.50;75.95
5550;BME280;2798;42.716;23.256;2024-02-14T01:34:26;94448.56;;;7.56;75.55
5550;BME280;2798;42.716;23.256;2024-02-14T01:36:53;94459.13;;;7.51;76.11
5550;BME280;2798;42.716;23.256;2024-02-14T01:39:19;94454.41;;;7.45;75.83
5550;BME280;2798;42.716;23.256;2024-02-14T01:41:45;94455.31;;;7.44;76.45
5550;BME280;2798;42.716;23.256;2024-02-14T01:44:14;94452.44;;;7.48;75.87
5550;BME280;2798;42.716;23.256;2024-02-14T01:46:40;94454.91;;;7.50;75.36
5550;BME280;2798;42.716;23.256;2024-02-14T01:49:06;94445.59;;;7.49;76.08
5550;BME280;2798;42.716;23.256;2024-02-14T01:51:31;94452.75;;;7.44;76.03
5550;BME280;2798;42.716;23.256;2024-02-14T01:53:57;94386.28;;;7.01;76.19
5550;BME280;2798;42.716;23.256;2024-02-14T01:56:23;94451.75;;;7.46;75.77
5550;BME280;2798;42.716;23.256;2024-02-14T01:58:49;94448.25;;;7.47;75.42
5550;BME280;2798;42.716;23.256;2024-02-14T02:01:15;94451.31;;;7.39;75.76
5550;BME280;2798;42.716;23.256;2024-02-14T02:03:42;94452.09;;;7.40;76.04
5550;BME280;2798;42.716;23.256;2024-02-14T02:06:08;94445.25;;;7.40;76.24
5550;BME280;2798;42.716;23.256;2024-02-14T02:08:34;94455.72;;;7.50;75.75
5550;BME280;2798;42.716;23.256;2024-02-14T02:10:59;94448.56;;;7.56;75.46
5550;BME280;2798;42.716;23.256;2024-02-14T02:13:24;94452.97;;;7.53;75.47
5550;BME280;2798;42.716;23.256;2024-02-14T02:15:51;94449.47;;;7.41;76.04
5550;BME280;2798;42.716;23.256;2024-02-14T02:18:17;94462.69;;;7.48;74.74
5550;BME280;2798;42.716;23.256;2024-02-14T02:20:42;94458.50;;;7.47;74.50
5550;BME280;2798;42.716;23.256;2024-02-14T02:23:09;94461.16;;;7.46;75.34
5550;BME280;2798;42.716;23.256;2024-02-14T02:25:34;94464.91;;;7.40;75.12
5550;BME280;2798;42.716;23.256;2024-02-14T02:27:59;94465.75;;;7.40;76.37
5550;BME280;2798;42.716;23.256;2024-02-14T02:30:25;94466.06;;;7.49;75.13
5550;BME280;2798;42.716;23.256;2024-02-14T02:32:50;94465.25;;;7.48;75.34
5550;BME280;2798;42.716;23.256;2024-02-14T02:35:16;94474.59;;;7.49;75.21
5550;BME280;2798;42.716;23.256;2024-02-14T02:37:41;94473.41;;;7.40;75.40
5550;BME280;2798;42.716;23.256;2024-02-14T02:40:09;94478.34;;;7.44;75.21
5550;BME280;2798;42.716;23.256;2024-02-14T02:42:35;94479.91;;;7.46;74.35
5550;BME280;2798;42.716;23.256;2024-02-14T02:45:01;94481.63;;;7.46;75.42
5550;BME280;2798;42.716;23.256;2024-02-14T02:47:31;94478.97;;;7.47;75.22
5550;BME280;2798;42.716;23.256;2024-02-14T02:49:56;94486.03;;;7.44;75.15
5550;BME280;2798;42.716;23.256;2024-02-14T02:52:22;94492.06;;;7.42;74.36
5550;BME280;2798;42.716;23.256;2024-02-14T02:54:48;94485.63;;;7.50;74.35
5550;BME280;2798;42.716;23.256;2024-02-14T02:57:13;94495.78;;;7.51;74.16
5550;BME280;2798;42.716;23.256;2024-02-14T02:59:39;94488.03;;;7.38;74.72
5550;BME280;2798;42.716;23.256;2024-02-14T03:02:07;94500.94;;;7.37;74.95
5550;BME280;2798;42.716;23.256;2024-02-14T03:04:33;94499.66;;;7.44;74.26
5550;BME280;2798;42.716;23.256;2024-02-14T03:06:58;94497.28;;;7.41;74.05
5550;BME280;2798;42.716;23.256;2024-02-14T03:09:24;94503.50;;;7.37;74.67
5550;BME280;2798;42.716;23.256;2024-02-14T03:11:51;94513.75;;;7.37;74.87
5550;BME280;2798;42.716;23.256;2024-02-14T03:14:16;94513.75;;;7.37;75.17
5550;BME280;2798;42.716;23.256;2024-02-14T03:16:42;94506.41;;;7.45;74.19
5550;BME280;2798;42.716;23.256;2024-02-14T03:19:07;94510.72;;;7.45;74.68
5550;BME280;2798;42.716;23.256;2024-02-14T03:21:32;94513.47;;;7.41;74.57
5550;BME280;2798;42.716;23.256;2024-02-14T03:24:00;94515.72;;;7.33;74.75
5550;BME280;2798;42.716;23.256;2024-02-14T03:26:25;94516.41;;;7.35;74.35
5550;BME280;2798;42.716;23.256;2024-02-14T03:28:51;94474.75;;;7.05;73.76
5550;BME280;2798;42.716;23.256;2024-02-14T03:31:18;94529.50;;;7.30;74.45
5550;BME280;2798;42.716;23.256;2024-02-14T03:33:43;94529.78;;;7.26;74.53
5550;BME280;2798;42.716;23.256;2024-02-14T03:36:09;94544.06;;;7.30;74.54
5550;BME280;2798;42.716;23.256;2024-02-14T03:38:35;94542.94;;;7.34;73.86
5550;BME280;2798;42.716;23.256;2024-02-14T03:41:00;94535.66;;;7.28;73.78
5550;BME280;2798;42.716;23.256;2024-02-14T03:43:26;94561.06;;;7.31;73.52
5550;BME280;2798;42.716;23.256;2024-02-14T03:45:51;94547.50;;;7.29;74.19
5550;BME280;2798;42.716;23.256;2024-02-14T03:48:17;94551.09;;;7.26;74.12
5550;BME280;2798;42.716;23.256;2024-02-14T03:50:42;94545.06;;;7.27;73.44
5550;BME280;2798;42.716;23.256;2024-02-14T03:53:08;94545.16;;;7.26;73.99
5550;BME280;2798;42.716;23.256;2024-02-14T03:55:36;94548.34;;;7.29;73.75
5550;BME280;2798;42.716;23.256;2024-02-14T03:58:01;94556.31;;;7.25;73.87
5550;BME280;2798;42.716;23.256;2024-02-14T04:00:28;94548.91;;;7.20;73.84
5550;BME280;2798;42.716;23.256;2024-02-14T04:02:54;94554.84;;;7.21;73.89
5550;BME280;2798;42.716;23.256;2024-02-14T04:05:27;94557.41;;;7.21;73.53
5550;BME280;2798;42.716;23.256;2024-02-14T04:07:55;94559.44;;;7.15;74.23
5550;BME280;2798;42.716;23.256;2024-02-14T04:10:20;94562.28;;;7.11;74.20
5550;BME280;2798;42.716;23.256;2024-02-14T04:12:46;94571.41;;;7.15;74.12
5550;BME280;2798;42.716;23.256;2024-02-14T04:15:11;94559.00;;;7.09;74.67
5550;BME280;2798;42.716;23.256;2024-02-14T04:17:37;94567.41;;;7.11;74.64
5550;BME280;2798;42.716;23.256;2024-02-14T04:20:03;94575.28;;;7.08;73.63
5550;BME280;2798;42.716;23.256;2024-02-14T04:22:29;94567.69;;;7.06;74.02
5550;BME280;2798;42.716;23.256;2024-02-14T04:24:54;94577.09;;;7.05;73.87
5550;BME280;2798;42.716;23.256;2024-02-14T04:27:19;94570.41;;;7.03;74.79
5550;BME280;2798;42.716;23.256;2024-02-14T04:29:45;94572.72;;;7.08;74.30
5550;BME280;2798;42.716;23.256;2024-02-14T04:32:10;94572.81;;;7.06;74.55
5550;BME280;2798;42.716;23.256;2024-02-14T04:34:36;94577.56;;;6.98;74.88
5550;BME280;2798;42.716;23.256;2024-02-14T04:37:03;94574.53;;;7.05;74.18
5550;BME280;2798;42.716;23.256;2024-02-14T04:39:35;94581.47;;;7.03;74.46
5550;BME280;2798;42.716;23.256;2024-02-14T04:42:00;94579.84;;;7.02;74.61
5550;BME280;2798;42.716;23.256;2024-02-14T04:44:26;94578.91;;;7.03;74.88
5550;BME280;2798;42.716;23.256;2024-02-14T04:46:51;94539.41;;;6.80;74.41
5550;BME280;2798;42.716;23.256;2024-02-14T04:49:16;94591.25;;;6.97;75.09
5550;BME280;2798;42.716;23.256;2024-02-14T04:51:42;94610.94;;;6.96;74.56
5550;BME280;2798;42.716;23.256;2024-02-14T04:54:07;94611.81;;;6.95;74.41
5550;BME280;2798;42.716;23.256;2024-02-14T04:56:33;94606.09;;;6.91;74.26
5550;BME280;2798;42.716;23.256;2024-02-14T04:58:58;94599.78;;;6.97;74.84
5550;BME280;2798;42.716;23.256;2024-02-14T05:01:24;94608.38;;;6.96;74.91
5550;BME280;2798;42.716;23.256;2024-02-14T05:03:49;94609.16;;;6.97;74.62
5550;BME280;2798;42.716;23.256;2024-02-14T05:06:14;94618.97;;;6.90;75.11
5550;BME280;2798;42.716;23.256;2024-02-14T05:08:40;94617.59;;;6.99;74.25
5550;BME280;2798;42.716;23.256;2024-02-14T05:11:05;94604.78;;;6.99;74.00
5550;BME280;2798;42.716;23.256;2024-02-14T05:13:30;94612.28;;;7.02;74.33
5550;BME280;2798;42.716;23.256;2024-02-14T05:15:56;94619.22;;;7.00;74.50
5550;BME280;2798;42.716;23.256;2024-02-14T05:18:21;94620.69;;;6.89;74.83
5550;BME280;2798;42.716;23.256;2024-02-14T05:20:47;94631.81;;;6.88;75.16
5550;BME280;2798;42.716;23.256;2024-02-14T05:23:12;94629.72;;;6.95;74.09
5550;BME280;2798;42.716;23.256;2024-02-14T05:25:38;94635.59;;;6.97;74.22
5550;BME280;2798;42.716;23.256;2024-02-14T05:28:04;94640.78;;;6.96;75.03
5550;BME280;2798;42.716;23.256;2024-02-14T05:30:29;94635.22;;;6.89;74.68
5550;BME280;2798;42.716;23.256;2024-02-14T05:32:56;94639.50;;;6.88;75.08
5550;BME280;2798;42.716;23.256;2024-02-14T05:35:22;94646.94;;;6.93;74.53
5550;BME280;2798;42.716;23.256;2024-02-14T05:37:47;94646.84;;;6.95;74.26
5550;BME280;2798;42.716;23.256;2024-02-14T05:40:15;94652.13;;;6.91;74.26
5550;BME280;2798;42.716;23.256;2024-02-14T05:42:40;94650.28;;;6.93;74.77
5550;BME280;2798;42.716;23.256;2024-02-14T05:45:05;94646.28;;;6.89;74.23
5550;BME280;2798;42.716;23.256;2024-02-14T05:47:31;94656.59;;;6.88;74.08
5550;BME280;2798;42.716;23.256;2024-02-14T05:49:56;94655.03;;;6.85;73.33
5550;BME280;2798;42.716;23.256;2024-02-14T05:52:22;94665.03;;;6.90;73.55
5550;BME280;2798;42.716;23.256;2024-02-14T05:54:47;94665.72;;;6.77;73.56
5550;BME280;2798;42.716;23.256;2024-02-14T05:57:12;94660.41;;;6.80;73.63
5550;BME280;2798;42.716;23.256;2024-02-14T05:59:37;94670.56;;;6.82;74.08
5550;BME280;2798;42.716;23.256;2024-02-14T06:02:03;94687.47;;;6.85;72.70
5550;BME280;2798;42.716;23.256;2024-02-14T06:04:30;94685.81;;;6.84;73.11
5550;BME280;2798;42.716;23.256;2024-02-14T06:06:56;94692.41;;;6.73;73.05
5550;BME280;2798;42.716;23.256;2024-02-14T06:09:21;94695.94;;;6.71;72.94
5550;BME280;2798;42.716;23.256;2024-02-14T06:11:46;94690.75;;;6.72;73.47
5550;BME280;2798;42.716;23.256;2024-02-14T06:14:11;94693.75;;;6.79;72.01
5550;BME280;2798;42.716;23.256;2024-02-14T06:16:38;94700.72;;;6.77;72.34
5550;BME280;2798;42.716;23.256;2024-02-14T06:19:03;94711.75;;;6.77;72.30
5550;BME280;2798;42.716;23.256;2024-02-14T06:21:29;94707.66;;;6.75;72.65
5550;BME280;2798;42.716;23.256;2024-02-14T06:23:55;94703.47;;;6.74;72.65
5550;BME280;2798;42.716;23.256;2024-02-14T06:26:20;94709.69;;;6.84;71.94
5550;BME280;2798;42.716;23.256;2024-02-14T06:28:45;94715.97;;;6.78;72.27
5550;BME280;2798;42.716;23.256;2024-02-14T06:31:11;94730.84;;;6.72;71.83
5550;BME280;2798;42.716;23.256;2024-02-14T06:33:36;94719.53;;;6.76;72.23
5550;BME280;2798;42.716;23.256;2024-02-14T06:36:02;94732.44;;;6.89;71.18
5550;BME280;2798;42.716;23.256;2024-02-14T06:38:27;94720.56;;;6.88;71.27
5550;BME280;2798;42.716;23.256;2024-02-14T06:40:52;94725.59;;;6.89;71.32
5550;BME280;2798;42.716;23.256;2024-02-14T06:43:17;94733.84;;;6.95;71.41
5550;BME280;2798;42.716;23.256;2024-02-14T06:45:43;94731.91;;;6.98;70.65
5550;BME280;2798;42.716;23.256;2024-02-14T06:48:08;94731.19;;;6.96;70.97
5550;BME280;2798;42.716;23.256;2024-02-14T06:50:34;94747.81;;;7.03;70.66
5550;BME280;2798;42.716;23.256;2024-02-14T06:52:59;94742.34;;;7.10;68.82
5550;BME280;2798;42.716;23.256;2024-02-14T06:55:26;94762.72;;;7.11;69.79
5550;BME280;2798;42.716;23.256;2024-02-14T06:57:51;94753.03;;;7.16;68.54
5550;BME280;2798;42.716;23.256;2024-02-14T07:00:16;94737.97;;;7.12;68.28
5550;BME280;2798;42.716;23.256;2024-02-14T07:02:42;94741.88;;;7.17;68.81
5550;BME280;2798;42.716;23.256;2024-02-14T07:05:08;94754.41;;;7.22;68.58
5550;BME280;2798;42.716;23.256;2024-02-14T07:07:37;94759.47;;;7.24;67.77
5550;BME280;2798;42.716;23.256;2024-02-14T07:10:02;94749.84;;;7.27;68.01
5550;BME280;2798;42.716;23.256;2024-02-14T07:12:28;94778.75;;;7.29;68.15
5550;BME280;2798;42.716;23.256;2024-02-14T07:14:55;94766.78;;;7.30;67.94
5550;BME280;2798;42.716;23.256;2024-02-14T07:17:20;94775.16;;;7.32;67.18
5550;BME280;2798;42.716;23.256;2024-02-14T07:19:45;94782.66;;;7.35;67.36
5550;BME280;2798;42.716;23.256;2024-02-14T07:22:14;94773.06;;;7.39;67.08
5550;BME280;2798;42.716;23.256;2024-02-14T07:24:41;94794.97;;;7.45;67.17
5550;BME280;2798;42.716;23.256;2024-02-14T07:27:06;94791.56;;;7.44;65.95
5550;BME280;2798;42.716;23.256;2024-02-14T07:29:31;94786.16;;;7.49;65.15
5550;BME280;2798;42.716;23.256;2024-02-14T07:31:56;94798.13;;;7.48;66.23
5550;BME280;2798;42.716;23.256;2024-02-14T07:34:23;94764.13;;;7.32;65.18
5550;BME280;2798;42.716;23.256;2024-02-14T07:36:49;94793.84;;;7.49;66.12
5550;BME280;2798;42.716;23.256;2024-02-14T07:39:14;94799.81;;;7.49;65.71
5550;BME280;2798;42.716;23.256;2024-02-14T07:41:39;94800.41;;;7.53;66.54
5550;BME280;2798;42.716;23.256;2024-02-14T07:44:04;94798.59;;;7.55;65.38
5550;BME280;2798;42.716;23.256;2024-02-14T07:46:30;94800.25;;;7.56;65.65
5550;BME280;2798;42.716;23.256;2024-02-14T07:48:56;94804.00;;;7.65;65.50
5550;BME280;2798;42.716;23.256;2024-02-14T07:51:22;94804.19;;;7.62;65.15
5550;BME280;2798;42.716;23.256;2024-02-14T07:53:48;94822.97;;;7.62;65.86
5550;BME280;2798;42.716;23.256;2024-02-14T07:56:15;94800.63;;;7.64;65.55
5550;BME280;2798;42.716;23.256;2024-02-14T07:58:43;94799.16;;;7.60;65.15
5550;BME280;2798;42.716;23.256;2024-02-14T08:01:08;94801.16;;;7.55;65.54
5550;BME280;2798;42.716;23.256;2024-02-14T08:03:33;94806.09;;;7.58;65.22
5550;BME280;2798;42.716;23.256;2024-02-14T08:05:58;94802.75;;;7.58;65.71
5550;BME280;2798;42.716;23.256;2024-02-14T08:08:25;94795.94;;;7.57;65.48
5550;BME280;2798;42.716;23.256;2024-02-14T08:10:52;94829.25;;;7.57;65.46
5550;BME280;2798;42.716;23.256;2024-02-14T08:13:17;94810.41;;;7.58;65.45
5550;BME280;2798;42.716;23.256;2024-02-14T08:15:43;94807.03;;;7.57;65.72
5550;BME280;2798;42.716;23.256;2024-02-14T08:18:08;94805.03;;;7.62;64.69
5550;BME280;2798;42.716;23.256;2024-02-14T08:20:33;94816.72;;;7.66;64.66
5550;BME280;2798;42.716;23.256;2024-02-14T08:22:59;94830.25;;;7.54;64.81
5550;BME280;2798;42.716;23.256;2024-02-14T08:25:24;94845.16;;;7.47;64.70
5550;BME280;2798;42.716;23.256;2024-02-14T08:27:49;94846.00;;;7.48;64.68
5550;BME280;2798;42.716;23.256;2024-02-14T08:30:16;94856.28;;;7.32;64.29
5550;BME280;2798;42.716;23.256;2024-02-14T08:32:42;94878.84;;;7.25;64.67
5550;BME280;2798;42.716;23.256;2024-02-14T08:35:07;94833.13;;;7.19;64.93
5550;BME280;2798;42.716;23.256;2024-02-14T08:37:34;94834.59;;;7.23;65.03
5550;BME280;2798;42.716;23.256;2024-02-14T08:40:02;94827.28;;;7.31;65.03
5550;BME280;2798;42.716;23.256;2024-02-14T08:42:30;94841.03;;;7.30;64.32
5550;BME280;2798;42.716;23.256;2024-02-14T08:44:55;94865.88;;;7.28;64.92
5550;BME280;2798;42.716;23.256;2024-02-14T08:47:21;94851.94;;;7.17;65.24
5550;BME280;2798;42.716;23.256;2024-02-14T08:49:46;94841.69;;;7.17;64.37
5550;BME280;2798;42.716;23.256;2024-02-14T08:52:12;94861.69;;;7.27;65.00
5550;BME280;2798;42.716;23.256;2024-02-14T08:54:37;94843.28;;;7.20;64.75
5550;BME280;2798;42.716;23.256;2024-02-14T08:57:02;94852.94;;;7.15;64.22
5550;BME280;2798;42.716;23.256;2024-02-14T08:59:28;94858.50;;;7.07;64.36
5550;BME280;2798;42.716;23.256;2024-02-14T09:01:53;94851.56;;;7.09;64.74
5550;BME280;2798;42.716;23.256;2024-02-14T09:04:18;94849.00;;;7.09;65.21
5550;BME280;2798;42.716;23.256;2024-02-14T09:06:44;94843.81;;;7.11;65.30
5550;BME280;2798;42.716;23.256;2024-02-14T09:09:09;94856.59;;;7.11;65.17
5550;BME280;2798;42.716;23.256;2024-02-14T09:11:35;94856.53;;;7.12;64.99
5550;BME280;2798;42.716;23.256;2024-02-14T09:14:00;94858.91;;;7.15;64.60
5550;BME280;2798;42.716;23.256;2024-02-14T09:16:31;94871.88;;;7.12;65.56
5550;BME280;2798;42.716;23.256;2024-02-14T09:18:56;94878.22;;;7.05;65.07
5550;BME280;2798;42.716;23.256;2024-02-14T09:21:22;94873.59;;;7.12;64.48
5550;BME280;2798;42.716;23.256;2024-02-14T09:23:48;94860.44;;;7.18;64.54
5550;BME280;2798;42.716;23.256;2024-02-14T09:26:13;94864.13;;;7.14;65.49
5550;BME280;2798;42.716;23.256;2024-02-14T09:28:42;94867.97;;;7.21;64.82
5550;BME280;2798;42.716;23.256;2024-02-14T09:31:07;94876.13;;;7.28;65.68
5550;BME280;2798;42.716;23.256;2024-02-14T09:33:35;94878.50;;;7.31;64.31
5550;BME280;2798;42.716;23.256;2024-02-14T09:36:02;94886.41;;;7.42;63.93
5550;BME280;2798;42.716;23.256;2024-02-14T09:38:27;94880.19;;;7.47;62.75
5550;BME280;2798;42.716;23.256;2024-02-14T09:40:58;94881.94;;;7.46;62.98
5550;BME280;2798;42.716;23.256;2024-02-14T09:43:38;94892.72;;;7.51;63.09
5550;BME280;2798;42.716;23.256;2024-02-14T09:46:06;94873.81;;;7.54;63.03
5550;BME280;2798;42.716;23.256;2024-02-14T09:48:32;94909.00;;;7.50;63.59
5550;BME280;2798;42.716;23.256;2024-02-14T09:50:57;94879.00;;;7.52;62.36
5550;BME280;2798;42.716;23.256;2024-02-14T09:53:23;94874.88;;;7.50;62.52
5550;BME280;2798;42.716;23.256;2024-02-14T09:55:49;94872.78;;;7.57;62.46
5550;BME280;2798;42.716;23.256;2024-02-14T09:58:15;94859.97;;;7.57;62.12
5550;BME280;2798;42.716;23.256;2024-02-14T10:00:40;94870.88;;;7.60;62.62
5550;BME280;2798;42.716;23.256;2024-02-14T10:03:06;94861.28;;;7.64;61.73
5550;BME280;2798;42.716;23.256;2024-02-14T10:05:31;94863.56;;;7.69;61.79
5550;BME280;2798;42.716;23.256;2024-02-14T10:07:57;94875.63;;;7.66;61.31
5550;BME280;2798;42.716;23.256;2024-02-14T10:10:23;94867.59;;;7.73;62.13
5550;BME280;2798;42.716;23.256;2024-02-14T10:12:48;94879.66;;;7.71;61.93
5550;BME280;2798;42.716;23.256;2024-02-14T10:15:13;94833.28;;;7.46;61.25
5550;BME280;2798;42.716;23.256;2024-02-14T10:17:39;94874.09;;;7.78;61.13
5550;BME280;2798;42.716;23.256;2024-02-14T10:20:05;94887.91;;;7.90;60.48
5550;BME280;2798;42.716;23.256;2024-02-14T10:22:37;94869.31;;;7.87;60.89
5550;BME280;2798;42.716;23.256;2024-02-14T10:25:03;94886.28;;;7.89;60.69
5550;BME280;2798;42.716;23.256;2024-02-14T10:27:29;94874.13;;;7.93;61.26
5550;BME280;2798;42.716;23.256;2024-02-14T10:29:56;94876.41;;;7.98;61.06
5550;BME280;2798;42.716;23.256;2024-02-14T10:32:22;94873.84;;;7.98;60.79
5550;BME280;2798;42.716;23.256;2024-02-14T10:34:49;94878.13;;;7.97;60.02
5550;BME280;2798;42.716;23.256;2024-02-14T10:37:14;94859.44;;;7.95;60.08
5550;BME280;2798;42.716;23.256;2024-02-14T10:39:41;94861.13;;;7.96;59.96
5550;BME280;2798;42.716;23.256;2024-02-14T10:42:07;94857.72;;;7.96;59.26
5550;BME280;2798;42.716;23.256;2024-02-14T10:44:32;94870.63;;;7.94;59.86
5550;BME280;2798;42.716;23.256;2024-02-14T10:46:58;94862.28;;;7.90;59.25
5550;BME280;2798;42.716;23.256;2024-02-14T10:49:25;94870.63;;;7.94;60.08
5550;BME280;2798;42.716;23.256;2024-02-14T10:51:53;94858.75;;;7.93;59.01
5550;BME280;2798;42.716;23.256;2024-02-14T10:54:19;94875.94;;;7.91;59.74
5550;BME280;2798;42.716;23.256;2024-02-14T10:56:45;94893.22;;;7.87;59.65
5550;BME280;2798;42.716;23.256;2024-02-14T10:59:15;94868.44;;;7.88;59.85
5550;BME280;2798;42.716;23.256;2024-02-14T11:01:41;94871.19;;;7.85;59.45
5550;BME280;2798;42.716;23.256;2024-02-14T11:04:07;94877.09;;;7.85;59.49
5550;BME280;2798;42.716;23.256;2024-02-14T11:06:43;94850.78;;;7.83;60.28
5550;BME280;2798;42.716;23.256;2024-02-14T11:09:11;94858.38;;;7.85;59.47
5550;BME280;2798;42.716;23.256;2024-02-14T11:11:37;94871.88;;;7.87;60.50
5550;BME280;2798;42.716;23.256;2024-02-14T11:14:03;94882.13;;;7.87;59.73
5550;BME280;2798;42.716;23.256;2024-02-14T11:16:30;94875.19;;;7.89;59.65
5550;BME280;2798;42.716;23.256;2024-02-14T11:21:35;94887.34;;;7.71;59.69
5550;BME280;2798;42.716;23.256;2024-02-14T11:24:04;94860.00;;;7.71;59.51
5550;BME280;2798;42.716;23.256;2024-02-14T11:26:37;94859.72;;;7.76;60.42
5550;BME280;2798;42.716;23.256;2024-02-14T11:29:03;94859.25;;;7.69;60.97
5550;BME280;2798;42.716;23.256;2024-02-14T11:31:35;94857.25;;;7.60;61.41
5550;BME280;2798;42.716;23.256;2024-02-14T11:34:04;94865.75;;;7.60;60.60
5550;BME280;2798;42.716;23.256;2024-02-14T11:36:30;94863.38;;;7.57;60.62
5550;BME280;2798;42.716;23.256;2024-02-14T11:38:56;94866.59;;;7.61;61.16
5550;BME280;2798;42.716;23.256;2024-02-14T11:41:22;94858.63;;;7.65;60.23
5550;BME280;2798;42.716;23.256;2024-02-14T11:43:51;94865.66;;;7.62;60.10
5550;BME280;2798;42.716;23.256;2024-02-14T11:46:16;94864.84;;;7.61;60.08
5550;BME280;2798;42.716;23.256;2024-02-14T11:48:43;94873.53;;;7.59;60.42
5550;BME280;2798;42.716;23.256;2024-02-14T11:51:10;94867.31;;;7.63;59.62
5550;BME280;2798;42.716;23.256;2024-02-14T11:53:36;94863.00;;;7.63;59.68
5550;BME280;2798;42.716;23.256;2024-02-14T11:56:01;94869.69;;;7.66;60.60
5550;BME280;2798;42.716;23.256;2024-02-14T11:58:27;94869.34;;;7.58;60.20
5550;BME280;2798;42.716;23.256;2024-02-14T12:00:52;94859.78;;;7.60;60.73
5550;BME280;2798;42.716;23.256;2024-02-14T12:03:19;94863.75;;;7.65;60.67
5550;BME280;2798;42.716;23.256;2024-02-14T12:05:46;94852.50;;;7.68;59.96
5550;BME280;2798;42.716;23.256;2024-02-14T12:08:12;94856.59;;;7.71;59.86
5550;BME280;2798;42.716;23.256;2024-02-14T12:10:38;94869.59;;;7.67;59.70
5550;BME280;2798;42.716;23.256;2024-02-14T12:13:10;94865.22;;;7.70;60.02
5550;BME280;2798;42.716;23.256;2024-02-14T12:15:46;94856.50;;;7.72;60.31
5550;BME280;2798;42.716;23.256;2024-02-14T12:18:11;94857.34;;;7.73;60.33
5550;BME280;2798;42.716;23.256;2024-02-14T12:20:37;94852.03;;;7.76;60.38
5550;BME280;2798;42.716;23.256;2024-02-14T12:23:03;94858.75;;;7.78;60.08
5550;BME280;2798;42.716;23.256;2024-02-14T12:25:32;94858.56;;;7.82;60.27
5550;BME280;2798;42.716;23.256;2024-02-14T12:27:58;94860.66;;;7.89;60.08
5550;BME280;2798;42.716;23.256;2024-02-14T12:30:25;94846.72;;;7.94;60.17
5550;BME280;2798;42.716;23.256;2024-02-14T12:32:58;94840.63;;;7.96;59.29
5550;BME280;2798;42.716;23.256;2024-02-14T12:35:24;94839.03;;;7.94;60.03
5550;BME280;2798;42.716;23.256;2024-02-14T12:37:50;94841.13;;;8.01;59.37
5550;BME280;2798;42.716;23.256;2024-02-14T12:40:18;94855.72;;;8.01;59.29
5550;BME280;2798;42.716;23.256;2024-02-14T12:42:45;94846.44;;;7.98;59.11
5550;BME280;2798;42.716;23.256;2024-02-14T12:45:10;94840.25;;;8.02;58.84
5550;BME280;2798;42.716;23.256;2024-02-14T12:47:35;94839.31;;;8.03;59.09
5550;BME280;2798;42.716;23.256;2024-02-14T12:50:00;94834.94;;;8.06;58.79
5550;BME280;2798;42.716;23.256;2024-02-14T12:52:26;94879.59;;;8.01;59.02
5550;BME280;2798;42.716;23.256;2024-02-14T12:54:51;94854.50;;;8.07;58.60
5550;BME280;2798;42.716;23.256;2024-02-14T12:57:16;94854.59;;;8.05;58.55
5550;BME280;2798;42.716;23.256;2024-02-14T12:59:42;94840.94;;;8.04;58.01
5550;BME280;2798;42.716;23.256;2024-02-14T13:02:07;94842.72;;;8.04;58.00
5550;BME280;2798;42.716;23.256;2024-02-14T13:04:32;94854.78;;;8.02;58.62
5550;BME280;2798;42.716;23.256;2024-02-14T13:06:58;94843.69;;;8.01;58.44
5550;BME280;2798;42.716;23.256;2024-02-14T13:09:23;94854.69;;;8.03;59.18
5550;BME280;2798;42.716;23.256;2024-02-14T13:11:49;94851.84;;;8.08;59.08
5550;BME280;2798;42.716;23.256;2024-02-14T13:14:14;94845.00;;;8.09;58.57
5550;BME280;2798;42.716;23.256;2024-02-14T13:16:40;94852.78;;;8.07;58.81
5550;BME280;2798;42.716;23.256;2024-02-14T13:19:05;94854.22;;;8.11;57.92